Flight Track Log - Related Links

Times and Time Zones

All times are in EDT time to prevent confusion due to time zone crossing. See the LBQ792 flight status page for this flight to view local times or setup timezone preferences in your user account.

Time Position Orientation Groundspeed Altitude Reporting Facility
EDT Latitude Longitude Course Direction KTS MPH feet Rate Location/Type
Thu 09:24:00 PM 42.3779 -76.6958 30° Northeast  Level FlightAware Approximate
Thu 09:25:00 PM 42.4164 -76.6654 30° Northeast  Level FlightAware Approximate
Thu 09:26:00 PM 42.4548 -76.6350 30° Northeast  Level FlightAware Approximate
Thu 09:26:50 PM 42.4864 -76.6667 34° Northeast 233 268 7,000  Level Boston Center
Thu 09:27:00 PM 42.4933 -76.6045 30° Northeast  Level FlightAware Approximate
Thu 09:27:50 PM 42.5422 -76.6197 32° Northeast 232 267 7,000  Level Boston Center
Thu 09:28:00 PM 42.5317 -76.5740 30° Northeast  Level FlightAware Approximate
Thu 09:28:51 PM 42.5942 -76.5725 34° Northeast 226 260 7,000  Level Boston Center
Thu 09:29:00 PM 42.5701 -76.5435 30° Northeast  Level FlightAware Approximate
Thu 09:29:52 PM 42.6481 -76.5253 33° Northeast 223 257 7,000  Level Boston Center
Thu 09:30:00 PM 42.6086 -76.5130 30° Northeast  Level FlightAware Approximate
Thu 09:30:52 PM 42.6975 -76.4775 35° Northeast 223 257 7,000  Level Boston Center
Thu 09:31:53 PM 42.7494 -76.4300 34° Northeast 226 260 7,000 -397 Level Boston Center
Thu 09:32:53 PM 42.8011 -76.3769 37° Northeast 233 268 6,200 -942 Descending Boston Center
Thu 09:33:54 PM 42.8614 -76.3269 31° Northeast 257 296 5,100 -1,082 Descending Boston Center
Thu 09:34:55 PM 42.9278 -76.2714 31° Northeast 258 297 4,000 -1,091 Descending Boston Center
Thu 09:35:55 PM 42.9878 -76.2242 30° Northeast 253 291 2,900 -545 Descending Boston Center
Thu 09:36:56 PM 43.0456 -76.1764 31° Northeast 246 283 2,900 -492 Level Boston Center
Thu 09:37:57 PM 43.0831 -76.1161 50° Northeast 192 221 1,900 -984 Descending Boston Center
Thu 09:39:00 PM 43.1000 -76.1000 36° Northeast  Level FlightAware Approximate
Thu 09:46:00 PM 43.1112 -76.1063 36° Northeast  Level Estimated
Thu 09:47:00 PM 43.1112 -76.1063 36° Northeast  Level Estimated
Thu 09:48:00 PM 43.1112 -76.1063 36° Northeast  Level Estimated
Thu 09:49:00 PM 43.1112 -76.1063 36° Northeast  Level Estimated

Login

Don't have an account? Register now (free) for customized features, flight alerts, and more!